Time;durP1;ratioP1;P1;durP2;ratioP2;P2;SDS_P1;SDS_P2;PMS_P1;PMS_P2;Temp;Humidity;BMP_temperature;BMP_pressure;BME280_temperature;BME280_humidity;BME280_pressure;Samples;Min_cycle;Max_cycle;Signal;HPM_P1;HPM_P2
2021/03/14 08:57:28;;;;;;;6.33;5.40;;;2.90;99.90;;;;;;5079072;28;20887;-92
2021/03/14 09:02:55;;;;;;;6.40;4.90;;;3.20;99.90;;;;;;5071253;28;20463;-91
2021/03/14 09:05:56;;;;;;;5.10;4.60;;;3.40;99.90;;;;;;5071956;28;20465;-91
2021/03/14 09:08:26;;;;;;;4.87;4.40;;;3.50;99.90;;;;;;5063377;28;20461;-91
2021/03/14 09:11:04;;;;;;;5.33;4.70;;;3.50;99.90;;;;;;5081361;28;20504;-92
2021/03/14 09:16:43;;;;;;;5.80;4.80;;;3.40;99.90;;;;;;5077729;28;20918;-91
2021/03/14 09:19:27;;;;;;;6.30;4.80;;;3.40;99.90;;;;;;5069605;28;20488;-91
2021/03/14 09:22:01;;;;;;;5.40;4.83;;;3.40;99.90;;;;;;5055319;28;20454;-92
2021/03/14 10:34:47;;;;;;;7.47;5.60;;;3.90;99.90;;;;;;679783;22;22047;31
2021/03/14 10:37:31;;;;;;;8.20;5.43;;;3.80;99.90;;;;;;5059724;28;20531;-91
2021/03/14 10:42:57;;;;;;;10.27;6.23;;;4.00;99.90;;;;;;5060951;28;20640;-91
2021/03/14 10:48:42;;;;;;;8.57;7.07;;;4.10;99.90;;;;;;5062793;28;20450;-91
2021/03/14 10:54:42;;;;;;;8.30;6.47;;;4.30;99.90;;;;;;5072235;28;20483;-92
2021/03/14 10:57:14;;;;;;;7.40;6.10;;;4.10;99.90;;;;;;5080482;28;20464;-90
2021/03/14 10:59:41;;;;;;;7.33;5.80;;;4.20;99.90;;;;;;5080950;28;20465;-91
2021/03/14 11:02:13;;;;;;;7.33;6.60;;;4.40;99.90;;;;;;5081402;28;20461;-91
2021/03/14 11:04:41;;;;;;;8.00;6.77;;;4.40;99.90;;;;;;5064550;28;20477;-91
2021/03/14 11:07:25;;;;;;;7.50;6.70;;;4.50;99.90;;;;;;5042514;28;20466;-91
2021/03/14 11:10:09;;;;;;;7.90;7.10;;;4.70;99.90;;;;;;5061595;28;21293;-91
2021/03/14 11:12:40;;;;;;;15.80;8.00;;;5.00;99.90;;;;;;5061371;28;20458;-92
2021/03/14 11:15:10;;;;;;;17.10;11.97;;;5.20;99.90;;;;;;5061607;28;20486;-91
2021/03/14 11:17:37;;;;;;;15.33;11.67;;;5.50;99.90;;;;;;5062136;28;20494;-90
2021/03/14 11:20:06;;;;;;;12.60;8.03;;;5.70;99.90;;;;;;5060155;28;20462;-91
2021/03/14 11:22:38;;;;;;;9.93;7.97;;;5.60;99.90;;;;;;5059497;28;20840;-92
2021/03/14 11:25:09;;;;;;;15.43;11.83;;;5.50;19.20;;;;;;5059259;28;20569;-91
2021/03/14 11:27:36;;;;;;;9.57;7.53;;;5.60;81.20;;;;;;5058838;28;20519;-91
2021/03/14 11:32:48;;;;;;;11.50;10.30;;;5.40;14.10;;;;;;5059704;28;20442;-91
2021/03/14 11:35:18;;;;;;;9.17;8.13;;;5.30;37.30;;;;;;5060441;28;20585;-92
2021/03/14 11:38:16;;;;;;;8.50;7.70;;;5.40;99.90;;;;;;5060178;28;20474;-92
2021/03/14 11:40:54;;;;;;;8.20;7.20;;;5.50;99.90;;;;;;5057913;28;20461;-91
2021/03/14 11:46:29;;;;;;;8.83;7.50;;;5.80;99.90;;;;;;5061846;28;20473;-92
2021/03/14 11:51:46;;;;;;;9.00;8.10;;;5.90;1.00;;;;;;5079765;28;20910;-92
2021/03/14 11:54:16;;;;;;;8.67;7.77;;;5.90;1.00;;;;;;5080612;28;20963;-92
2021/03/14 11:59:13;;;;;;;13.60;8.30;;;5.80;1.00;;;;;;5057385;28;20802;-91
2021/03/14 12:04:24;;;;;;;10.20;7.33;;;6.00;1.00;;;;;;5049077;28;20466;-92
2021/03/14 12:06:57;;;;;;;12.17;8.13;;;6.00;99.90;;;;;;5038977;28;20560;-92
2021/03/14 12:09:28;;;;;;;10.00;8.80;;;6.10;69.90;;;;;;5039380;28;20447;-92
2021/03/14 12:11:55;;;;;;;12.00;9.60;;;5.90;1.00;;;;;;5039138;28;20550;-92
2021/03/14 12:14:25;;;;;;;13.13;9.50;;;5.80;99.90;;;;;;5038580;28;20880;-92
2021/03/14 12:19:38;;;;;;;9.97;8.27;;;5.60;99.90;;;;;;5038848;28;20502;-91
2021/03/14 12:22:07;;;;;;;11.83;7.90;;;5.60;1.00;;;;;;5021151;28;20458;-91
2021/03/14 12:24:35;;;;;;;12.03;9.30;;;5.60;1.00;;;;;;5039186;28;20459;-91
2021/03/14 12:27:02;;;;;;;13.53;9.43;;;5.60;1.00;;;;;;5038689;28;20467;-91
2021/03/14 12:29:34;;;;;;;10.70;9.60;;;5.60;1.00;;;;;;5038492;28;20486;-91
2021/03/14 12:34:57;;;;;;;11.50;9.50;;;5.90;47.30;;;;;;5035273;28;20454;-91
2021/03/14 12:37:24;;;;;;;11.03;9.90;;;5.90;99.90;;;;;;5038429;28;20502;-91
2021/03/14 12:39:56;;;;;;;11.80;10.30;;;6.10;99.90;;;;;;5038213;28;20467;-90
2021/03/14 12:42:23;;;;;;;12.00;10.20;;;6.30;99.90;;;;;;5038198;28;20494;-89
2021/03/14 12:44:54;;;;;;;11.10;9.57;;;6.70;99.90;;;;;;5037842;28;20467;-90
2021/03/14 12:47:26;;;;;;;9.87;8.97;;;7.10;99.90;;;;;;5037737;28;20557;-90
2021/03/14 12:49:56;;;;;;;12.93;9.17;;;7.50;99.90;;;;;;5020183;28;20483;-89
2021/03/14 12:52:25;;;;;;;9.13;8.33;;;7.60;78.30;;;;;;5042758;28;20474;-90
2021/03/14 12:54:54;;;;;;;9.33;8.50;;;7.40;1.00;;;;;;5057249;28;20494;-90
2021/03/14 12:57:22;;;;;;;9.57;8.60;;;7.30;52.20;;;;;;5039249;28;20543;-89
2021/03/14 12:59:58;;;;;;;8.77;7.97;;;7.30;99.90;;;;;;5039872;28;20462;-90
2021/03/14 13:02:35;;;;;;;8.73;6.93;;;7.50;99.90;;;;;;5037413;28;20453;-90
2021/03/14 13:05:05;;;;;;;8.83;6.97;;;8.20;1.00;;;;;;5053337;28;20467;-90
2021/03/14 13:07:51;;;;;;;7.73;6.83;;;8.30;99.90;;;;;;5037403;28;20754;-91
2021/03/14 14:03:15;;;;;;;6.80;5.80;;;5.30;1.00;;;;;;679812;22;21976;-83
2021/03/14 14:05:42;;;;;;;5.53;5.00;;;5.50;1.00;;;;;;5046746;28;20541;-89
2021/03/14 14:08:09;;;;;;;4.60;4.20;;;5.70;21.40;;;;;;5051911;28;20466;-90
2021/03/14 14:10:40;;;;;;;5.23;4.37;;;6.10;1.00;;;;;;5060802;28;20535;-90
2021/03/14 14:13:10;;;;;;;4.70;4.20;;;6.50;1.00;;;;;;5059410;28;20469;-89
2021/03/14 14:15:41;;;;;;;6.03;3.67;;;6.60;1.00;;;;;;5060434;28;20486;-91
2021/03/14 14:18:11;;;;;;;4.83;4.43;;;6.60;1.00;;;;;;5060314;28;20460;-90
2021/03/14 14:20:45;;;;;;;4.87;4.37;;;6.30;1.00;;;;;;5060171;28;20466;-91
2021/03/14 14:23:16;;;;;;;5.27;4.77;;;5.90;1.00;;;;;;5055703;28;20459;-90
2021/03/14 14:25:43;;;;;;;4.50;4.10;;;5.80;1.00;;;;;;5040805;28;20489;-90
2021/03/14 14:28:45;;;;;;;4.90;4.40;;;5.60;1.00;;;;;;5041244;28;20477;-91
2021/03/14 14:31:26;;;;;;;11.90;8.43;;;5.50;99.90;;;;;;5040021;28;20508;-91
2021/03/14 14:33:59;;;;;;;5.53;5.00;;;5.50;99.90;;;;;;5039279;28;20487;-89
2021/03/14 14:36:40;;;;;;;5.37;4.83;;;5.30;1.00;;;;;;5040416;28;20476;-90
2021/03/14 14:39:14;;;;;;;5.70;5.20;;;5.20;1.00;;;;;;5040677;28;20757;-92
2021/03/14 14:41:43;;;;;;;6.63;5.30;;;5.30;49.60;;;;;;5039924;28;20473;-90
2021/03/14 14:44:10;;;;;;;11.33;6.30;;;5.60;1.00;;;;;;5038757;28;20450;-89
2021/03/14 14:46:44;;;;;;;6.87;6.27;;;5.80;1.00;;;;;;5039773;28;20474;-90
2021/03/14 14:49:11;;;;;;;6.30;5.80;;;6.20;1.00;;;;;;5040462;28;20473;-90
2021/03/14 14:51:39;;;;;;;6.60;6.00;;;6.50;99.90;;;;;;5040054;28;20471;-89
2021/03/14 14:54:06;;;;;;;7.50;4.53;;;6.60;1.00;;;;;;5042039;28;20482;-88
2021/03/14 14:56:33;;;;;;;5.63;5.13;;;6.80;1.00;;;;;;5040297;28;20454;-90
2021/03/14 14:59:00;;;;;;;4.90;4.50;;;7.30;99.90;;;;;;5039912;28;20509;-90
2021/03/14 15:01:27;;;;;;;5.73;5.13;;;7.60;1.00;;;;;;5039728;28;20509;-90
2021/03/14 15:06:39;;;;;;;8.10;5.20;;;7.30;99.90;;;;;;5061317;28;20469;-90
2021/03/14 15:09:22;;;;;;;5.93;4.73;;;7.20;99.90;;;;;;5067320;28;20906;-89
2021/03/14 15:11:48;;;;;;;7.40;5.73;;;6.90;99.90;;;;;;5060350;28;20458;-90
2021/03/14 15:14:15;;;;;;;12.90;11.63;;;6.90;99.90;;;;;;5059977;28;20743;-89
2021/03/14 15:16:43;;;;;;;10.90;8.57;;;7.00;99.90;;;;;;5060384;28;20470;-92
2021/03/14 15:19:19;;;;;;;8.93;7.10;;;7.30;99.90;;;;;;5059919;28;20467;-91
2021/03/14 15:21:58;;;;;;;7.70;7.00;;;7.40;99.90;;;;;;5059910;28;20568;-91
2021/03/14 16:18:53;;;;;;;9.97;6.63;;;6.90;99.90;;;;;;5060828;28;20491;-92
2021/03/14 22:15:44;;;;;;;13.63;5.37;;;4.60;1.00;;;;;;681967;22;22049;31
2021/03/14 22:18:14;;;;;;;7.80;4.90;;;4.60;99.90;;;;;;5055658;28;20593;-91
2021/03/14 22:20:41;;;;;;;8.10;5.50;;;4.60;99.90;;;;;;5053813;28;20470;-90
2021/03/14 22:23:11;;;;;;;9.93;5.67;;;4.60;1.00;;;;;;5048383;28;20527;-90
2021/03/14 22:25:46;;;;;;;6.97;4.90;;;4.70;1.00;;;;;;5043255;28;20485;-91
2021/03/14 22:30:59;;;;;;;11.30;4.93;;;4.60;10.40;;;;;;5046144;28;20545;-91
2021/03/14 22:33:28;;;;;;;6.53;5.77;;;4.60;43.80;;;;;;5037573;28;20497;-90
2021/03/14 22:35:56;;;;;;;8.77;6.10;;;4.60;36.50;;;;;;5054070;28;20493;-90
2021/03/14 22:38:24;;;;;;;16.73;6.00;;;4.40;56.70;;;;;;5050600;28;20471;-90
2021/03/14 22:40:51;;;;;;;8.20;6.17;;;4.40;99.90;;;;;;5035207;28;20469;-90
2021/03/14 22:43:18;;;;;;;6.63;5.53;;;4.30;99.90;;;;;;5055550;28;20485;-90
2021/03/14 22:45:45;;;;;;;8.73;6.27;;;4.30;99.90;;;;;;5037751;28;20922;-90
2021/03/14 22:48:17;;;;;;;11.40;7.33;;;4.30;99.90;;;;;;5041599;28;20553;-91
2021/03/14 22:50:49;;;;;;;7.83;6.30;;;4.40;99.90;;;;;;5036914;28;20781;-91
2021/03/14 22:53:20;;;;;;;10.33;7.27;;;4.40;99.90;;;;;;5042670;28;20473;-90
2021/03/14 22:55:46;;;;;;;9.70;7.07;;;4.50;99.90;;;;;;5056891;28;20489;-90
2021/03/14 22:58:16;;;;;;;9.00;7.10;;;4.40;99.90;;;;;;5047843;28;21246;-90
2021/03/14 23:00:44;;;;;;;9.30;7.43;;;4.40;99.90;;;;;;5036474;28;20482;-90
2021/03/14 23:03:14;;;;;;;12.77;7.87;;;4.40;99.90;;;;;;5045300;28;20488;-90
2021/03/14 23:05:43;;;;;;;12.67;6.67;;;4.40;99.90;;;;;;5053407;28;20462;-90
2021/03/14 23:08:15;;;;;;;10.73;8.30;;;4.40;99.90;;;;;;5032731;28;20473;-90
2021/03/14 23:10:44;;;;;;;10.17;7.67;;;4.50;99.90;;;;;;5038497;28;20469;-90
2021/03/14 23:13:11;;;;;;;12.00;7.20;;;4.50;99.90;;;;;;5038269;28;20462;-90
2021/03/14 23:15:38;;;;;;;13.87;7.70;;;4.50;99.90;;;;;;5040436;28;20498;-90
2021/03/14 23:18:05;;;;;;;9.97;7.00;;;4.60;99.90;;;;;;5056093;28;20497;-90
2021/03/14 23:20:35;;;;;;;9.50;7.47;;;4.60;99.90;;;;;;5061574;28;20474;-90
2021/03/14 23:23:05;;;;;;;13.63;7.50;;;4.50;99.90;;;;;;5055956;28;20584;-91
2021/03/14 23:25:33;;;;;;;8.73;7.20;;;4.60;99.90;;;;;;5059530;28;20470;-90
2021/03/14 23:28:03;;;;;;;12.43;8.20;;;4.60;99.90;;;;;;5056703;28;20466;-90
2021/03/14 23:30:32;;;;;;;13.10;7.87;;;4.60;99.90;;;;;;5069880;28;20440;-90
2021/03/14 23:33:01;;;;;;;10.00;7.47;;;4.60;99.90;;;;;;5078237;28;20557;-90
2021/03/14 23:35:30;;;;;;;7.77;6.97;;;4.70;99.90;;;;;;5075119;28;20480;-90
2021/03/14 23:37:57;;;;;;;10.60;7.83;;;4.70;99.90;;;;;;5067813;28;20489;-90
2021/03/14 23:40:24;;;;;;;11.00;8.33;;;4.70;99.90;;;;;;5064036;28;20458;-90
2021/03/14 23:42:51;;;;;;;10.10;7.67;;;4.70;99.90;;;;;;5061096;28;20459;-90
2021/03/14 23:45:17;;;;;;;15.73;8.80;;;4.70;99.90;;;;;;5062382;28;20470;-90
2021/03/14 23:47:44;;;;;;;12.33;8.60;;;4.70;99.90;;;;;;5063396;28;20440;-90
2021/03/14 23:50:13;;;;;;;13.03;8.03;;;4.80;99.90;;;;;;5078847;28;20465;-90
2021/03/14 23:52:40;;;;;;;11.10;8.20;;;4.70;99.90;;;;;;5056034;28;20477;-90
2021/03/14 23:55:09;;;;;;;14.57;8.90;;;4.70;99.90;;;;;;5059460;28;20942;-90
2021/03/14 23:57:36;;;;;;;13.37;8.60;;;4.70;99.90;;;;;;5069393;28;20785;-90
